createdAt,value
2017-09-01T00:00:31.588Z,16.40
2017-09-01T00:02:59.089Z,16.50
2017-09-01T00:05:26.583Z,16.40
2017-09-01T00:07:54.840Z,16.20
2017-09-01T00:10:22.332Z,16.20
2017-09-01T00:12:49.848Z,16.10
2017-09-01T00:15:17.330Z,16.00
2017-09-01T00:17:44.832Z,16.10
2017-09-01T00:20:12.325Z,15.90
2017-09-01T00:22:41.423Z,15.90
2017-09-01T00:25:08.918Z,15.90
2017-09-01T00:27:36.405Z,16.00
2017-09-01T00:30:03.901Z,16.00
2017-09-01T00:32:31.378Z,16.00
2017-09-01T00:34:58.860Z,16.20
2017-09-01T00:37:26.346Z,16.30
2017-09-01T00:39:53.852Z,16.10
2017-09-01T00:42:21.358Z,15.80
2017-09-01T00:44:49.775Z,15.80
2017-09-01T00:47:17.338Z,15.80
2017-09-01T00:49:44.827Z,16.00
2017-09-01T00:52:12.299Z,15.80
2017-09-01T00:54:39.804Z,15.80
2017-09-01T00:57:08.063Z,16.00
2017-09-01T00:59:35.542Z,16.00
2017-09-01T01:02:03.032Z,16.10
2017-09-01T01:04:30.539Z,16.00
2017-09-01T01:06:58.005Z,16.10
2017-09-01T01:09:25.507Z,15.90
2017-09-01T01:11:53.009Z,15.90
2017-09-01T01:14:20.616Z,16.00
2017-09-01T01:16:48.115Z,15.60
2017-09-01T01:19:15.607Z,15.60
2017-09-01T01:21:43.113Z,15.80
2017-09-01T01:24:10.586Z,15.70
2017-09-01T01:26:38.082Z,15.70
2017-09-01T01:29:05.549Z,15.70
2017-09-01T01:31:33.049Z,15.80
2017-09-01T01:34:00.536Z,16.00
2017-09-01T01:36:28.023Z,15.90
2017-09-01T01:38:55.509Z,16.00
2017-09-01T01:41:22.998Z,16.10
2017-09-01T01:43:50.477Z,16.00
2017-09-01T01:46:18.001Z,16.10
2017-09-01T01:48:45.489Z,16.10
2017-09-01T01:51:12.986Z,16.20
2017-09-01T01:53:40.473Z,16.30
2017-09-01T01:56:07.956Z,16.30
2017-09-01T01:58:35.450Z,16.40
2017-09-01T02:01:02.941Z,16.40
2017-09-01T02:03:30.445Z,16.20
2017-09-01T02:05:57.925Z,16.30
2017-09-01T02:08:25.418Z,16.30
2017-09-01T02:10:52.908Z,16.20
2017-09-01T02:13:20.406Z,16.30
2017-09-01T02:15:48.646Z,16.20
2017-09-01T02:18:16.153Z,16.20
2017-09-01T02:20:43.639Z,16.30
2017-09-01T02:23:11.131Z,16.30
2017-09-01T02:25:38.634Z,16.40
2017-09-01T02:28:06.109Z,16.30
2017-09-01T02:30:33.608Z,16.30
2017-09-01T02:33:01.093Z,16.20
2017-09-01T02:35:28.567Z,16.30
2017-09-01T02:37:56.047Z,16.30
2017-09-01T02:40:23.554Z,16.30
2017-09-01T02:42:51.092Z,16.30
2017-09-01T02:45:18.601Z,16.30
2017-09-01T02:47:46.652Z,16.30
2017-09-01T02:50:14.155Z,16.30
2017-09-01T02:52:41.640Z,16.20
2017-09-01T02:55:09.139Z,16.10
2017-09-01T02:57:36.625Z,15.90
2017-09-01T03:00:04.129Z,15.90
2017-09-01T03:02:31.611Z,15.90
2017-09-01T03:04:59.087Z,16.00
2017-09-01T03:07:26.567Z,16.00
2017-09-01T03:09:54.078Z,15.90
2017-09-01T03:12:21.572Z,15.80
2017-09-01T03:14:49.062Z,15.90
2017-09-01T03:17:16.570Z,15.70
2017-09-01T03:19:44.056Z,15.80
2017-09-01T03:22:11.553Z,15.70
2017-09-01T03:24:39.039Z,15.90
2017-09-01T03:27:06.529Z,15.90
2017-09-01T03:29:34.011Z,15.90
2017-09-01T03:32:01.518Z,16.00
2017-09-01T03:34:28.999Z,16.00
2017-09-01T03:36:56.526Z,16.10
2017-09-01T03:39:23.998Z,16.20
2017-09-01T03:41:51.488Z,16.20
2017-09-01T03:44:18.968Z,16.20
2017-09-01T03:46:46.459Z,16.10
2017-09-01T03:49:13.946Z,16.10
2017-09-01T03:51:41.458Z,16.10
2017-09-01T03:54:08.955Z,16.10
2017-09-01T03:56:36.460Z,16.00
2017-09-01T03:59:04.737Z,15.90
2017-09-01T04:01:32.216Z,15.90
2017-09-01T04:03:59.720Z,16.10
2017-09-01T04:06:27.205Z,16.10
2017-09-01T04:08:54.726Z,16.00
2017-09-01T04:11:22.219Z,16.00
2017-09-01T04:13:53.952Z,16.00
2017-09-01T04:16:21.449Z,15.90
2017-09-01T04:18:48.932Z,16.10
2017-09-01T04:21:16.441Z,16.00
2017-09-01T04:23:43.935Z,15.70
2017-09-01T04:26:11.410Z,15.80
2017-09-01T04:28:38.912Z,15.80
2017-09-01T04:31:06.403Z,15.90
2017-09-01T04:33:34.684Z,15.70
2017-09-01T04:36:02.190Z,15.70
2017-09-01T04:38:29.723Z,15.70
2017-09-01T04:40:57.219Z,15.80
2017-09-01T04:43:24.707Z,15.90
2017-09-01T04:45:52.975Z,16.00
2017-09-01T04:48:20.460Z,16.00
2017-09-01T04:50:47.954Z,16.00
2017-09-01T04:53:15.447Z,15.90
2017-09-01T04:55:42.936Z,16.00
2017-09-01T04:58:10.428Z,16.00
2017-09-01T05:00:37.932Z,15.90
2017-09-01T05:03:05.439Z,16.10
2017-09-01T05:05:32.959Z,16.00
2017-09-01T05:08:01.059Z,16.00
2017-09-01T05:10:28.553Z,16.00
2017-09-01T05:12:56.032Z,16.00
2017-09-01T05:15:23.529Z,16.10
2017-09-01T05:17:51.017Z,16.00
2017-09-01T05:20:18.610Z,16.00
2017-09-01T05:22:46.164Z,16.00
2017-09-01T05:25:13.663Z,16.10
2017-09-01T05:27:41.150Z,16.00
2017-09-01T05:30:08.693Z,15.90
2017-09-01T05:32:36.197Z,15.90
2017-09-01T05:35:03.683Z,15.70
2017-09-01T05:37:31.183Z,15.80
2017-09-01T05:39:59.568Z,16.00
2017-09-01T05:42:27.077Z,15.90
2017-09-01T05:44:54.556Z,16.00
2017-09-01T05:47:22.051Z,16.00
2017-09-01T05:49:49.534Z,16.00
2017-09-01T05:52:17.803Z,16.10
2017-09-01T05:54:45.283Z,16.00
2017-09-01T05:57:12.791Z,16.10
2017-09-01T05:59:40.264Z,16.10
2017-09-01T06:02:07.764Z,16.10
2017-09-01T06:04:35.255Z,16.10
2017-09-01T06:07:02.739Z,16.10
2017-09-01T06:09:30.238Z,16.20
2017-09-01T06:11:57.737Z,15.90
2017-09-01T06:14:25.217Z,15.90
2017-09-01T06:16:52.737Z,15.80
2017-09-01T06:19:20.243Z,15.90
2017-09-01T06:21:48.491Z,16.20
2017-09-01T06:24:16.693Z,16.20
2017-09-01T06:26:44.189Z,16.10
2017-09-01T06:29:11.690Z,16.10
2017-09-01T06:31:39.190Z,16.10
2017-09-01T06:34:06.702Z,16.10
2017-09-01T06:36:34.190Z,15.90
2017-09-01T06:39:02.456Z,16.10
2017-09-01T06:41:29.951Z,16.20
2017-09-01T06:43:57.451Z,16.20
2017-09-01T06:46:24.934Z,16.20
2017-09-01T06:48:52.528Z,16.20
2017-09-01T06:51:20.003Z,16.30
2017-09-01T06:53:47.515Z,16.20
2017-09-01T06:56:14.986Z,16.00
2017-09-01T06:58:43.258Z,16.20
2017-09-01T07:01:10.742Z,16.20
2017-09-01T07:03:38.242Z,16.20
2017-09-01T07:06:05.737Z,16.10
2017-09-01T07:08:33.222Z,16.20
2017-09-01T07:11:00.719Z,16.10
2017-09-01T07:13:28.233Z,16.10
2017-09-01T07:15:55.719Z,16.10
2017-09-01T07:18:23.211Z,16.10
2017-09-01T07:20:51.481Z,15.90
2017-09-01T07:23:18.978Z,15.90
2017-09-01T07:25:46.467Z,16.00
2017-09-01T07:28:13.953Z,16.20
2017-09-01T07:30:41.452Z,16.40
2017-09-01T07:33:08.970Z,16.40
2017-09-01T07:35:36.467Z,16.40
2017-09-01T07:38:03.987Z,16.40
2017-09-01T07:40:31.480Z,16.30
2017-09-01T07:43:00.060Z,16.10
2017-09-01T07:45:28.376Z,16.20
2017-09-01T07:47:55.861Z,16.40
2017-09-01T07:50:23.371Z,16.50
2017-09-01T07:52:50.845Z,16.60
2017-09-01T07:55:18.350Z,16.70
2017-09-01T07:57:45.871Z,16.20
2017-09-01T08:00:13.375Z,16.40
2017-09-01T08:02:40.872Z,16.40
2017-09-01T08:05:08.391Z,16.40
2017-09-01T08:07:35.898Z,16.20
2017-09-01T08:10:03.451Z,16.20
2017-09-01T08:12:30.956Z,16.40
2017-09-01T08:14:58.463Z,16.30
2017-09-01T08:17:25.972Z,16.40
2017-09-01T08:19:53.462Z,16.40
2017-09-01T08:22:20.963Z,16.40
2017-09-01T08:24:48.473Z,16.50
2017-09-01T08:27:15.991Z,16.70
2017-09-01T08:29:43.474Z,16.60
2017-09-01T08:32:10.979Z,16.70
2017-09-01T08:34:38.478Z,16.70
2017-09-01T08:37:05.983Z,16.80
2017-09-01T08:39:33.475Z,16.80
2017-09-01T08:42:00.993Z,16.80
2017-09-01T08:44:28.483Z,16.90
2017-09-01T08:46:55.983Z,16.90
2017-09-01T08:49:23.467Z,17.10
2017-09-01T08:51:50.966Z,17.20
2017-09-01T08:54:18.474Z,17.20
2017-09-01T08:56:45.996Z,17.20
2017-09-01T08:59:13.482Z,17.20
2017-09-01T09:01:40.971Z,17.20
2017-09-01T09:04:08.464Z,17.20
2017-09-01T09:06:35.952Z,17.30
2017-09-01T09:09:03.462Z,17.30
2017-09-01T09:11:30.962Z,17.00
2017-09-01T09:13:58.457Z,16.90
2017-09-01T09:16:25.947Z,17.10
2017-09-01T09:18:53.440Z,17.20
2017-09-01T09:21:20.932Z,17.30
2017-09-01T09:23:48.452Z,17.30
2017-09-01T09:26:15.934Z,17.30
2017-09-01T09:28:44.482Z,17.40
2017-09-01T09:31:13.111Z,17.40
2017-09-01T09:33:40.609Z,17.40
2017-09-01T09:36:08.090Z,17.30
2017-09-01T09:38:36.372Z,17.30
2017-09-01T09:41:03.868Z,17.30
2017-09-01T09:43:31.359Z,17.20
2017-09-01T09:45:58.851Z,17.10
2017-09-01T09:48:26.363Z,17.10
2017-09-01T09:50:53.854Z,16.90
2017-09-01T09:53:21.354Z,16.90
2017-09-01T09:55:48.843Z,17.00
2017-09-01T09:58:16.356Z,17.10
2017-09-01T10:00:43.851Z,17.10
2017-09-01T10:03:11.350Z,17.10
2017-09-01T10:05:38.854Z,17.20
2017-09-01T10:08:06.330Z,17.20
2017-09-01T10:10:33.824Z,17.20
2017-09-01T10:13:01.306Z,17.30
2017-09-01T10:15:28.807Z,17.50
2017-09-01T10:17:56.302Z,17.40
2017-09-01T10:20:24.564Z,17.70
2017-09-01T10:22:52.080Z,17.70
2017-09-01T10:25:19.577Z,17.70
2017-09-01T10:27:47.135Z,17.70
2017-09-01T10:30:15.395Z,17.70
2017-09-01T10:32:42.878Z,17.70
2017-09-01T10:35:10.381Z,17.50
2017-09-01T10:37:37.872Z,17.70
2017-09-01T10:40:05.368Z,17.90
2017-09-01T10:42:32.852Z,18.20
2017-09-01T10:45:00.357Z,18.50
2017-09-01T10:47:39.573Z,18.30
2017-09-01T10:50:19.059Z,18.60
2017-09-01T10:52:58.389Z,18.70
2017-09-01T10:55:37.867Z,18.60
2017-09-01T10:58:26.071Z,18.20
2017-09-01T11:00:54.324Z,18.40
2017-09-01T11:03:22.092Z,18.30
2017-09-01T11:05:49.588Z,18.60
2017-09-01T11:08:17.861Z,18.10
2017-09-01T11:10:45.386Z,18.10
2017-09-01T11:13:12.880Z,18.30
2017-09-01T11:15:40.367Z,18.20
2017-09-01T11:18:07.877Z,18.30
2017-09-01T11:20:41.933Z,18.50
2017-09-01T11:23:14.987Z,18.50
2017-09-01T11:25:42.484Z,18.50
2017-09-01T11:28:09.974Z,18.50
2017-09-01T11:30:37.472Z,18.40
2017-09-01T11:33:04.990Z,18.40
2017-09-01T11:35:32.471Z,18.60
2017-09-01T11:37:59.968Z,18.50
2017-09-01T11:40:27.442Z,18.40
2017-09-01T11:42:56.791Z,18.40
2017-09-01T11:45:24.270Z,18.30
2017-09-01T11:47:51.772Z,18.30
2017-09-01T11:50:19.255Z,18.50
2017-09-01T11:52:47.504Z,18.60
2017-09-01T11:55:15.006Z,18.50
2017-09-01T11:57:43.881Z,18.50
2017-09-01T12:00:11.383Z,18.50
2017-09-01T12:02:38.873Z,18.60
2017-09-01T12:05:06.370Z,18.50
2017-09-01T12:07:33.876Z,18.40
2017-09-01T12:10:01.355Z,18.40
2017-09-01T12:12:28.843Z,18.30
2017-09-01T12:14:56.311Z,18.40
2017-09-01T12:17:23.806Z,18.40
2017-09-01T12:19:52.817Z,18.40
2017-09-01T12:22:20.309Z,18.40
2017-09-01T12:24:47.823Z,18.30
2017-09-01T12:27:15.298Z,18.30
2017-09-01T12:29:42.802Z,18.30
2017-09-01T12:32:10.293Z,18.20
2017-09-01T12:34:38.559Z,18.30
2017-09-01T12:37:06.057Z,18.30
2017-09-01T12:39:33.553Z,18.30
2017-09-01T12:42:01.043Z,18.10
2017-09-01T12:44:28.553Z,18.10
2017-09-01T12:46:56.046Z,18.20
2017-09-01T12:49:23.556Z,18.20
2017-09-01T12:51:51.027Z,18.20
2017-09-01T12:54:18.532Z,18.10
2017-09-01T12:56:46.016Z,18.20
2017-09-01T12:59:14.283Z,18.00
2017-09-01T13:01:41.755Z,18.00
2017-09-01T13:04:09.260Z,18.10
2017-09-01T13:06:36.735Z,18.20
2017-09-01T13:09:04.244Z,18.30
2017-09-01T13:11:31.740Z,18.10
2017-09-01T13:13:59.232Z,18.20
2017-09-01T13:16:26.717Z,18.30
2017-09-01T13:18:54.204Z,18.40
2017-09-01T13:21:21.700Z,18.40
2017-09-01T13:23:49.193Z,18.20
2017-09-01T13:26:16.770Z,18.20
2017-09-01T13:28:44.284Z,18.40
2017-09-01T13:31:11.772Z,18.40
2017-09-01T13:33:39.286Z,18.60
2017-09-01T13:36:06.788Z,18.60
2017-09-01T13:38:34.322Z,18.80
2017-09-01T13:41:01.821Z,18.80
2017-09-01T13:43:29.299Z,19.00
2017-09-01T13:45:56.810Z,18.90
2017-09-01T13:48:24.283Z,19.00
2017-09-01T13:50:51.786Z,19.10
2017-09-01T13:53:19.286Z,19.00
2017-09-01T13:55:47.550Z,19.00
2017-09-01T13:58:15.810Z,19.00
2017-09-01T14:00:43.338Z,19.00
2017-09-01T14:03:10.848Z,19.00
2017-09-01T14:05:38.338Z,19.10
2017-09-01T14:08:05.849Z,19.20
2017-09-01T14:10:33.345Z,19.30
2017-09-01T14:13:00.832Z,19.50
2017-09-01T14:15:28.325Z,19.70
2017-09-01T14:17:55.830Z,19.60
2017-09-01T14:20:23.336Z,19.80
2017-09-01T14:22:50.821Z,19.80
2017-09-01T14:25:19.078Z,19.90
2017-09-01T14:27:46.580Z,19.90
2017-09-01T14:30:14.066Z,19.80
2017-09-01T14:32:41.554Z,19.70
2017-09-01T14:35:09.067Z,19.60
2017-09-01T14:37:36.564Z,19.60
2017-09-01T14:40:04.915Z,19.30
2017-09-01T14:42:32.410Z,19.10
2017-09-01T14:44:59.896Z,19.40
2017-09-01T14:47:27.387Z,19.50
2017-09-01T14:49:54.872Z,19.60
2017-09-01T14:52:22.374Z,19.80
2017-09-01T14:54:49.880Z,19.90
2017-09-01T14:57:17.397Z,20.10
2017-09-01T14:59:44.872Z,20.20
2017-09-01T15:02:12.391Z,20.20
2017-09-01T15:07:34.009Z,20.10
2017-09-01T15:10:01.497Z,20.20
2017-09-01T15:12:29.006Z,20.20
2017-09-01T15:14:56.505Z,20.00
2017-09-01T15:17:23.987Z,19.80
2017-09-01T15:19:51.490Z,19.80
2017-09-01T15:22:18.974Z,19.50
2017-09-01T15:24:46.463Z,19.60
2017-09-01T15:27:13.948Z,19.70
2017-09-01T15:29:41.453Z,19.90
2017-09-01T15:32:08.933Z,20.10
2017-09-01T15:34:36.427Z,20.20
2017-09-01T15:37:03.919Z,20.20
2017-09-01T15:39:31.435Z,20.20
2017-09-01T15:41:58.930Z,19.90
2017-09-01T15:44:26.431Z,19.80
2017-09-01T15:46:53.924Z,19.90
2017-09-01T15:49:21.433Z,19.90
2017-09-01T15:51:48.943Z,19.90
2017-09-01T15:54:16.450Z,19.80
2017-09-01T15:56:43.929Z,19.60
2017-09-01T15:59:11.433Z,19.60
2017-09-01T16:01:38.944Z,19.60
2017-09-01T16:04:06.495Z,19.50
2017-09-01T16:06:33.985Z,19.30
2017-09-01T16:09:01.500Z,19.10
2017-09-01T16:11:28.999Z,18.90
2017-09-01T16:13:56.482Z,18.80
2017-09-01T16:16:23.983Z,18.80
2017-09-01T16:18:51.464Z,18.70
2017-09-01T16:21:18.967Z,18.70
2017-09-01T16:23:46.448Z,18.60
2017-09-01T16:26:13.949Z,18.80
2017-09-01T16:28:41.444Z,18.80
2017-09-01T16:31:08.962Z,18.70
2017-09-01T16:33:36.443Z,18.80
2017-09-01T16:36:03.940Z,18.70
2017-09-01T16:38:31.417Z,18.70
2017-09-01T16:40:58.924Z,18.60
2017-09-01T16:43:26.406Z,18.50
2017-09-01T16:45:54.760Z,18.40
2017-09-01T16:48:22.230Z,18.40
2017-09-01T16:50:49.765Z,18.30
2017-09-01T16:53:17.261Z,18.20
2017-09-01T16:55:44.748Z,18.00
2017-09-01T16:58:12.239Z,17.90
2017-09-01T17:00:39.720Z,17.90
2017-09-01T17:03:08.012Z,17.80
2017-09-01T17:05:35.488Z,17.80
2017-09-01T17:08:03.898Z,17.70
2017-09-01T17:10:31.387Z,17.90
2017-09-01T17:12:58.880Z,18.00
2017-09-01T17:15:26.410Z,18.20
2017-09-01T17:17:53.903Z,18.20
2017-09-01T17:20:27.995Z,18.20
2017-09-01T17:22:55.493Z,18.10
2017-09-01T17:25:22.990Z,17.90
2017-09-01T17:27:50.511Z,17.80
2017-09-01T17:30:17.986Z,17.70
2017-09-01T17:32:45.471Z,17.80
2017-09-01T17:35:13.728Z,17.60
2017-09-01T17:37:41.231Z,17.60
2017-09-01T17:40:08.720Z,17.40
2017-09-01T17:42:36.197Z,17.40
2017-09-01T17:45:04.619Z,17.40
2017-09-01T17:47:32.118Z,17.20
2017-09-01T17:49:59.627Z,17.10
2017-09-01T17:52:27.101Z,17.20
2017-09-01T17:54:54.597Z,17.20
2017-09-01T17:57:22.077Z,17.10
2017-09-01T17:59:49.575Z,17.00
2017-09-01T18:02:17.058Z,17.10
2017-09-01T18:04:44.551Z,17.10
2017-09-01T18:07:12.053Z,17.10
2017-09-01T18:09:39.554Z,17.10
2017-09-01T18:12:07.031Z,17.00
2017-09-01T18:14:34.523Z,16.90
2017-09-01T18:17:02.006Z,17.00
2017-09-01T18:19:30.272Z,16.90
2017-09-01T18:24:51.185Z,16.80
2017-09-01T18:27:18.671Z,16.60
2017-09-01T18:29:49.653Z,16.30
2017-09-01T18:32:17.905Z,16.20
2017-09-01T18:34:45.402Z,16.20
2017-09-01T18:37:12.909Z,16.00
2017-09-01T18:39:40.511Z,15.90
2017-09-01T18:42:09.573Z,15.90
2017-09-01T18:44:37.077Z,16.00
2017-09-01T18:47:04.579Z,15.90
2017-09-01T18:49:32.091Z,16.00
2017-09-01T18:51:59.598Z,16.10
2017-09-01T18:54:27.089Z,16.10
2017-09-01T18:56:54.602Z,16.00
2017-09-01T18:59:22.087Z,15.70
2017-09-01T19:01:49.575Z,15.70
2017-09-01T19:04:17.059Z,15.80
2017-09-01T19:06:44.561Z,15.70
2017-09-01T19:09:12.047Z,15.80
2017-09-01T19:11:39.559Z,15.90
2017-09-01T19:14:07.052Z,15.90
2017-09-01T19:16:34.542Z,15.70
2017-09-01T19:19:02.030Z,15.60
2017-09-01T19:21:29.530Z,15.40
2017-09-01T19:23:57.779Z,15.40
2017-09-01T19:26:25.274Z,15.40
2017-09-01T19:28:52.758Z,15.50
2017-09-01T19:31:20.259Z,15.50
2017-09-01T19:33:47.767Z,15.40
2017-09-01T19:36:15.283Z,15.30
2017-09-01T19:38:42.770Z,15.10
2017-09-01T19:41:10.271Z,15.00
2017-09-01T19:43:37.762Z,15.10
2017-09-01T19:46:05.239Z,15.10
2017-09-01T19:48:32.752Z,15.20
2017-09-01T19:51:00.233Z,15.30
2017-09-01T19:53:27.735Z,15.40
2017-09-01T19:55:55.226Z,15.50
2017-09-01T19:58:22.741Z,15.50
2017-09-01T20:00:51.142Z,15.30
2017-09-01T20:03:18.663Z,15.00
2017-09-01T20:05:46.930Z,15.10
2017-09-01T20:08:14.418Z,15.10
2017-09-01T20:10:41.911Z,15.00
2017-09-01T20:13:09.419Z,15.00
2017-09-01T20:15:36.908Z,15.00
2017-09-01T20:18:04.524Z,15.20
2017-09-01T20:20:32.011Z,15.30
2017-09-01T20:22:59.541Z,15.30
2017-09-01T20:25:27.026Z,15.30
2017-09-01T20:27:54.518Z,15.20
2017-09-01T20:30:22.008Z,15.20
2017-09-01T20:32:49.487Z,15.20
2017-09-01T20:35:16.979Z,15.10
2017-09-01T20:37:44.459Z,15.00
2017-09-01T20:40:11.968Z,15.00
2017-09-01T20:42:39.455Z,15.00
2017-09-01T20:45:06.947Z,15.00
2017-09-01T20:47:34.454Z,15.20
2017-09-01T20:50:01.952Z,15.10
2017-09-01T20:52:29.438Z,15.00
2017-09-01T20:54:56.948Z,14.90
2017-09-01T20:57:24.438Z,15.00
2017-09-01T20:59:51.950Z,15.10
2017-09-01T21:02:19.441Z,15.00
2017-09-01T21:04:46.927Z,14.70
2017-09-01T21:07:14.423Z,14.90
2017-09-01T21:09:41.940Z,14.90
2017-09-01T21:12:09.434Z,14.90
2017-09-01T21:14:36.914Z,15.00
2017-09-01T21:17:18.855Z,15.20
2017-09-01T21:19:46.345Z,15.10
2017-09-01T21:22:13.833Z,15.00
2017-09-01T21:24:41.313Z,15.00
2017-09-01T21:27:08.816Z,15.00
2017-09-01T21:29:36.301Z,14.90
2017-09-01T21:32:03.823Z,14.80
2017-09-01T21:34:31.304Z,14.90
2017-09-01T21:36:58.780Z,14.80
2017-09-01T21:39:26.275Z,15.00
2017-09-01T21:41:53.769Z,15.00
2017-09-01T21:44:21.271Z,15.00
2017-09-01T21:46:48.763Z,15.00
2017-09-01T21:49:16.265Z,15.00
2017-09-01T21:51:43.763Z,15.10
2017-09-01T21:54:11.251Z,15.10
2017-09-01T21:56:38.743Z,15.10
2017-09-01T21:59:06.240Z,14.90
2017-09-01T22:01:33.742Z,15.00
2017-09-01T22:04:01.272Z,15.00
2017-09-01T22:06:28.753Z,14.80
2017-09-01T22:08:56.234Z,14.90
2017-09-01T22:11:23.737Z,14.90
2017-09-01T22:13:51.215Z,14.90
2017-09-01T22:16:18.709Z,15.00
2017-09-01T22:18:46.186Z,15.00
2017-09-01T22:21:13.683Z,14.90
2017-09-01T22:23:41.181Z,14.90
2017-09-01T22:26:08.675Z,14.80
2017-09-01T22:28:36.149Z,14.60
2017-09-01T22:31:03.653Z,14.70
2017-09-01T22:33:31.157Z,14.50
2017-09-01T22:35:58.664Z,14.60
2017-09-01T22:38:26.153Z,14.80
2017-09-01T22:40:53.666Z,14.90
2017-09-01T22:43:21.150Z,14.80
2017-09-01T22:45:48.640Z,14.70
2017-09-01T22:48:16.149Z,14.90
2017-09-01T22:50:43.648Z,14.90
2017-09-01T22:53:11.161Z,15.00
2017-09-01T22:55:38.646Z,15.00
2017-09-01T22:58:06.138Z,14.80
2017-09-01T23:00:33.636Z,14.70
2017-09-01T23:03:01.136Z,14.60
2017-09-01T23:05:28.630Z,14.50
2017-09-01T23:07:56.127Z,14.40
2017-09-01T23:10:23.624Z,14.50
2017-09-01T23:12:52.146Z,14.50
2017-09-01T23:15:19.640Z,14.30
2017-09-01T23:17:47.124Z,14.20
2017-09-01T23:20:14.628Z,14.30
2017-09-01T23:22:42.102Z,14.50
2017-09-01T23:25:15.460Z,14.70
2017-09-01T23:27:43.722Z,14.60
2017-09-01T23:30:11.208Z,14.60
2017-09-01T23:32:38.704Z,14.70
2017-09-01T23:35:06.226Z,14.70
2017-09-01T23:37:33.714Z,14.80
2017-09-01T23:40:01.223Z,14.80
2017-09-01T23:42:28.711Z,14.70
2017-09-01T23:44:56.207Z,14.80
2017-09-01T23:47:23.679Z,14.70
2017-09-01T23:49:51.938Z,14.80
2017-09-01T23:52:20.203Z,14.60
2017-09-01T23:54:47.693Z,14.60
2017-09-01T23:57:15.190Z,14.60
2017-09-01T23:59:42.683Z,14.70
